Time;durP1;ratioP1;P1;durP2;ratioP2;P2;SDS_P1;SDS_P2;PMS_P1;PMS_P2;Temp;Humidity;BMP_temperature;BMP_pressure;BME280_temperature;BME280_humidity;BME280_pressure;Samples;Min_cycle;Max_cycle;Signal;HPM_P1;HPM_P2
2024/01/23 00:02:26;;;;;;;3.15;1.10;;;;;;;;;;5058028;28;20204;-70
2024/01/23 00:04:53;;;;;;;1.95;1.00;;;;;;;;;;5058012;28;20197;-70
2024/01/23 00:07:19;;;;;;;1.25;0.70;;;;;;;;;;5058115;28;20657;-70
2024/01/23 00:09:45;;;;;;;0.98;0.70;;;;;;;;;;5058000;28;20538;-70
2024/01/23 00:12:11;;;;;;;1.20;0.75;;;;;;;;;;5057813;28;20688;-70
2024/01/23 00:14:37;;;;;;;5.18;0.95;;;;;;;;;;5057908;28;20201;-70
2024/01/23 00:17:04;;;;;;;3.55;0.77;;;;;;;;;;5057993;28;20540;-70
2024/01/23 00:19:32;;;;;;;1.45;1.00;;;;;;;;;;5058070;28;20204;-70
2024/01/23 00:21:58;;;;;;;2.55;0.70;;;;;;;;;;5057857;28;20278;-70
2024/01/23 00:24:24;;;;;;;3.05;0.90;;;;;;;;;;5057568;28;20624;-70
2024/01/23 00:26:50;;;;;;;1.10;0.70;;;;;;;;;;5057414;28;20275;-70
2024/01/23 00:29:16;;;;;;;2.78;0.60;;;;;;;;;;5054533;28;20193;-70
2024/01/23 00:31:43;;;;;;;2.47;0.70;;;;;;;;;;5054499;28;20208;-70
2024/01/23 00:34:09;;;;;;;2.70;0.77;;;;;;;;;;5054643;28;20243;-70
2024/01/23 00:36:37;;;;;;;2.38;0.80;;;;;;;;;;5054571;28;20225;-70
2024/01/23 00:39:03;;;;;;;3.72;0.95;;;;;;;;;;5054315;28;20205;-70
2024/01/23 00:41:31;;;;;;;1.55;0.80;;;;;;;;;;5054684;28;20198;-70
2024/01/23 00:43:57;;;;;;;3.63;0.93;;;;;;;;;;5054298;28;20205;-70
2024/01/23 00:46:23;;;;;;;1.15;0.50;;;;;;;;;;5054223;28;20693;-70
2024/01/23 00:48:49;;;;;;;3.25;0.90;;;;;;;;;;5054011;28;20205;-70
2024/01/23 00:51:16;;;;;;;3.05;0.90;;;;;;;;;;5055048;28;20197;-70
2024/01/23 00:53:43;;;;;;;0.90;0.82;;;;;;;;;;5054441;28;20247;-69
2024/01/23 00:56:09;;;;;;;1.20;1.10;;;;;;;;;;5054026;28;20221;-71
2024/01/23 00:58:36;;;;;;;2.35;0.80;;;;;;;;;;5054263;28;20201;-70
2024/01/23 01:01:02;;;;;;;1.40;1.00;;;;;;;;;;5054797;28;20694;-70
2024/01/23 01:03:28;;;;;;;1.55;0.68;;;;;;;;;;5054522;28;20216;-70
2024/01/23 01:05:55;;;;;;;2.00;1.40;;;;;;;;;;5053921;28;20229;-70
2024/01/23 01:08:21;;;;;;;3.80;1.17;;;;;;;;;;5053710;28;20255;-70
2024/01/23 01:10:48;;;;;;;3.33;1.08;;;;;;;;;;5054023;28;20255;-70
2024/01/23 01:13:15;;;;;;;2.70;1.02;;;;;;;;;;5053886;28;20197;-69
2024/01/23 01:15:41;;;;;;;4.85;1.10;;;;;;;;;;5053863;28;20254;-70
2024/01/23 01:18:07;;;;;;;3.45;0.90;;;;;;;;;;5054084;28;20193;-70
2024/01/23 01:20:34;;;;;;;2.55;0.98;;;;;;;;;;5054083;28;20243;-70
2024/01/23 01:23:00;;;;;;;4.22;1.38;;;;;;;;;;5053474;28;20197;-70
2024/01/23 01:25:26;;;;;;;4.15;1.83;;;;;;;;;;5053685;28;20217;-70
2024/01/23 01:27:54;;;;;;;5.20;1.30;;;;;;;;;;5053127;28;20225;-70
2024/01/23 01:30:21;;;;;;;3.72;0.88;;;;;;;;;;5053679;28;20197;-70
2024/01/23 01:32:47;;;;;;;3.75;0.93;;;;;;;;;;5053730;28;20631;-70
2024/01/23 01:35:13;;;;;;;3.05;0.93;;;;;;;;;;5053446;28;20203;-70
2024/01/23 01:37:40;;;;;;;5.28;1.10;;;;;;;;;;5053032;28;20670;-70
2024/01/23 01:40:06;;;;;;;1.95;1.10;;;;;;;;;;5053075;28;20209;-70
2024/01/23 01:42:33;;;;;;;1.88;1.00;;;;;;;;;;5053598;28;20197;-70
2024/01/23 01:45:00;;;;;;;4.25;1.17;;;;;;;;;;5053413;28;20727;-70
2024/01/23 01:47:26;;;;;;;3.78;1.45;;;;;;;;;;5053318;28;20620;-70
2024/01/23 01:49:53;;;;;;;2.15;1.40;;;;;;;;;;5052943;28;20205;-71
2024/01/23 01:52:19;;;;;;;4.97;1.10;;;;;;;;;;5052988;28;20255;-71
2024/01/23 01:54:46;;;;;;;3.80;1.00;;;;;;;;;;5053415;28;20205;-71
2024/01/23 01:57:13;;;;;;;2.42;1.20;;;;;;;;;;5053079;28;20244;-71
2024/01/23 01:59:39;;;;;;;4.03;1.10;;;;;;;;;;5052920;28;20201;-71
2024/01/23 02:02:07;;;;;;;3.78;1.25;;;;;;;;;;5052808;28;20201;-71
2024/01/23 02:04:33;;;;;;;4.22;1.38;;;;;;;;;;5052731;28;20692;-71
2024/01/23 02:06:59;;;;;;;5.85;1.52;;;;;;;;;;5052446;28;20712;-71
2024/01/23 02:09:26;;;;;;;4.00;0.93;;;;;;;;;;5052766;28;20304;-70
2024/01/23 02:11:55;;;;;;;1.92;0.90;;;;;;;;;;5052605;28;20247;-70
2024/01/23 02:14:22;;;;;;;5.68;1.02;;;;;;;;;;5052824;28;20734;-71
2024/01/23 02:16:48;;;;;;;3.13;1.23;;;;;;;;;;5052784;28;20290;-71
2024/01/23 02:19:16;;;;;;;2.88;1.10;;;;;;;;;;5052462;28;20192;-71
2024/01/23 02:21:42;;;;;;;4.43;1.00;;;;;;;;;;5052862;28;20284;-70
2024/01/23 02:24:10;;;;;;;3.65;1.23;;;;;;;;;;5052500;28;20205;-70
2024/01/23 02:26:36;;;;;;;5.40;1.15;;;;;;;;;;5052514;28;20248;-70
2024/01/23 02:29:02;;;;;;;5.47;1.02;;;;;;;;;;5054537;28;20201;-70
2024/01/23 02:31:28;;;;;;;2.78;1.08;;;;;;;;;;5053827;28;20197;-70
2024/01/23 02:33:54;;;;;;;6.68;1.10;;;;;;;;;;5051977;28;20205;-70
2024/01/23 02:36:21;;;;;;;1.58;0.82;;;;;;;;;;5052262;28;20217;-70
2024/01/23 02:38:47;;;;;;;5.93;1.73;;;;;;;;;;5052277;28;20292;-70
2024/01/23 02:41:15;;;;;;;5.40;1.35;;;;;;;;;;5052273;28;20257;-70
2024/01/23 02:43:41;;;;;;;3.95;1.10;;;;;;;;;;5052181;28;20197;-70
2024/01/23 02:46:07;;;;;;;5.03;1.08;;;;;;;;;;5052052;28;20225;-70
2024/01/23 02:48:33;;;;;;;3.10;1.23;;;;;;;;;;5051745;28;20220;-70
2024/01/23 02:50:59;;;;;;;2.92;1.10;;;;;;;;;;5052051;28;20250;-71
2024/01/23 02:53:26;;;;;;;5.68;1.05;;;;;;;;;;5051442;28;20232;-70
2024/01/23 02:55:51;;;;;;;4.35;0.93;;;;;;;;;;5052121;28;20255;-70
2024/01/23 02:58:20;;;;;;;2.08;0.77;;;;;;;;;;5055300;28;20189;-70
2024/01/23 03:00:46;;;;;;;2.60;1.05;;;;;;;;;;5055815;28;20239;-72
2024/01/23 03:03:12;;;;;;;7.20;1.17;;;;;;;;;;5066289;28;20209;-70
2024/01/23 03:05:39;;;;;;;5.45;1.10;;;;;;;;;;5065833;28;20233;-71
2024/01/23 03:08:06;;;;;;;4.63;0.88;;;;;;;;;;5061787;28;20217;-71
2024/01/23 03:10:32;;;;;;;2.95;0.88;;;;;;;;;;5055829;28;20197;-71
2024/01/23 03:12:58;;;;;;;8.18;1.45;;;;;;;;;;5067748;28;20197;-70
2024/01/23 03:15:26;;;;;;;2.80;1.02;;;;;;;;;;5068646;28;20242;-70
2024/01/23 03:17:52;;;;;;;4.15;1.10;;;;;;;;;;5068430;28;20200;-71
2024/01/23 03:20:19;;;;;;;5.60;1.20;;;;;;;;;;5068627;28;20205;-70
2024/01/23 03:22:45;;;;;;;4.40;1.35;;;;;;;;;;5068952;28;20223;-71
2024/01/23 03:25:11;;;;;;;6.30;1.10;;;;;;;;;;5054733;28;20246;-70
2024/01/23 03:27:38;;;;;;;4.03;1.00;;;;;;;;;;5053977;28;20212;-70
2024/01/23 03:30:04;;;;;;;6.03;1.27;;;;;;;;;;5053312;28;20196;-70
2024/01/23 03:32:32;;;;;;;3.95;1.10;;;;;;;;;;5052596;28;20205;-70
2024/01/23 03:34:58;;;;;;;3.60;1.17;;;;;;;;;;5052700;28;20258;-70
2024/01/23 03:37:24;;;;;;;4.75;1.05;;;;;;;;;;5044136;28;20197;-70
2024/01/23 03:39:50;;;;;;;4.80;1.15;;;;;;;;;;5052018;28;20205;-70
2024/01/23 03:42:17;;;;;;;8.50;1.60;;;;;;;;;;5052422;28;20209;-70
2024/01/23 03:44:43;;;;;;;5.40;1.23;;;;;;;;;;5054477;28;20200;-70
2024/01/23 03:47:09;;;;;;;5.18;1.30;;;;;;;;;;5052394;28;20312;-70
2024/01/23 03:49:37;;;;;;;4.15;1.20;;;;;;;;;;5051959;28;20198;-70
2024/01/23 03:52:03;;;;;;;7.72;1.55;;;;;;;;;;5053003;28;20262;-70
2024/01/23 03:54:29;;;;;;;7.55;1.60;;;;;;;;;;5051652;28;20243;-71
2024/01/23 03:56:55;;;;;;;3.30;1.02;;;;;;;;;;5051616;28;20217;-71
2024/01/23 03:59:22;;;;;;;11.10;1.40;;;;;;;;;;5050990;28;20202;-70
2024/01/23 04:01:48;;;;;;;3.95;1.17;;;;;;;;;;5051511;28;20729;-70
2024/01/23 04:04:14;;;;;;;4.43;1.52;;;;;;;;;;5053051;28;20611;-70
2024/01/23 04:06:42;;;;;;;7.68;1.83;;;;;;;;;;5055730;28;20708;-70
2024/01/23 04:09:08;;;;;;;5.78;1.48;;;;;;;;;;5056851;28;20205;-70
2024/01/23 04:11:34;;;;;;;8.52;1.90;;;;;;;;;;5057600;28;20662;-70
2024/01/23 04:14:01;;;;;;;10.38;1.70;;;;;;;;;;5056939;28;20697;-71
2024/01/23 04:16:27;;;;;;;9.48;2.10;;;;;;;;;;5055029;28;20217;-70
2024/01/23 04:18:54;;;;;;;8.27;1.80;;;;;;;;;;5052792;28;20624;-70
2024/01/23 04:21:21;;;;;;;15.15;2.28;;;;;;;;;;5053000;28;20320;-70
2024/01/23 04:23:48;;;;;;;9.50;2.15;;;;;;;;;;5053009;28;20201;-70
2024/01/23 04:26:18;;;;;;;11.95;2.22;;;;;;;;;;5052691;28;20278;-70
2024/01/23 04:28:44;;;;;;;6.85;1.58;;;;;;;;;;5052616;28;20686;-70
2024/01/23 04:31:11;;;;;;;12.80;1.60;;;;;;;;;;5053032;28;20205;-70
2024/01/23 04:33:37;;;;;;;8.77;2.10;;;;;;;;;;5054467;28;20204;-70
2024/01/23 04:36:03;;;;;;;9.93;1.90;;;;;;;;;;5054465;28;20274;-70
2024/01/23 04:38:29;;;;;;;13.60;2.00;;;;;;;;;;5054360;28;20197;-70
2024/01/23 04:40:57;;;;;;;9.93;2.05;;;;;;;;;;5054341;28;20260;-70
2024/01/23 04:43:23;;;;;;;9.68;2.78;;;;;;;;;;5054179;28;20554;-70
2024/01/23 04:45:50;;;;;;;11.00;2.05;;;;;;;;;;5054621;28;20227;-70
2024/01/23 04:48:16;;;;;;;5.93;2.30;;;;;;;;;;5054358;28;20225;-70
2024/01/23 04:50:42;;;;;;;11.00;1.90;;;;;;;;;;5054373;28;20634;-70
2024/01/23 04:53:07;;;;;;;8.55;2.30;;;;;;;;;;5054175;28;20767;-70
2024/01/23 04:55:34;;;;;;;4.75;1.67;;;;;;;;;;5054195;28;20258;-70
2024/01/23 04:58:01;;;;;;;8.50;2.25;;;;;;;;;;5054389;28;20201;-70
2024/01/23 05:00:27;;;;;;;11.45;2.25;;;;;;;;;;5054039;28;20205;-70
2024/01/23 05:02:54;;;;;;;13.05;2.35;;;;;;;;;;5054018;28;20669;-70
2024/01/23 05:05:20;;;;;;;11.90;2.28;;;;;;;;;;5053879;28;20221;-70
2024/01/23 05:07:46;;;;;;;11.95;1.90;;;;;;;;;;5053981;28;20720;-70
2024/01/23 05:10:12;;;;;;;7.82;1.75;;;;;;;;;;5053987;28;20288;-70
2024/01/23 05:12:39;;;;;;;7.18;1.50;;;;;;;;;;5054148;28;20590;-70
2024/01/23 05:15:07;;;;;;;15.82;1.90;;;;;;;;;;5053345;28;20632;-70
2024/01/23 05:17:34;;;;;;;3.53;1.60;;;;;;;;;;5053855;28;20189;-70
2024/01/23 05:20:00;;;;;;;15.00;1.80;;;;;;;;;;5053589;28;20213;-70
2024/01/23 05:22:26;;;;;;;10.55;1.88;;;;;;;;;;5053425;28;20205;-70
2024/01/23 05:24:53;;;;;;;9.13;2.10;;;;;;;;;;5053901;28;20201;-70
2024/01/23 05:27:19;;;;;;;8.98;2.05;;;;;;;;;;5053492;28;20312;-71
2024/01/23 05:29:45;;;;;;;13.73;2.10;;;;;;;;;;5053518;28;20252;-69
2024/01/23 05:32:13;;;;;;;7.60;2.25;;;;;;;;;;5053423;28;20251;-69
2024/01/23 05:34:39;;;;;;;11.35;2.30;;;;;;;;;;5053282;28;20243;-70
2024/01/23 05:37:05;;;;;;;6.82;2.20;;;;;;;;;;5053534;28;20229;-70
2024/01/23 05:39:36;;;;;;;11.57;2.17;;;;;;;;;;5053297;28;20228;-70
2024/01/23 05:42:02;;;;;;;10.73;2.03;;;;;;;;;;5053273;28;20692;-70
2024/01/23 05:44:28;;;;;;;7.53;1.92;;;;;;;;;;5053258;28;20898;-70
2024/01/23 05:46:55;;;;;;;15.50;1.95;;;;;;;;;;5053449;28;20232;-70
2024/01/23 05:49:23;;;;;;;6.28;1.83;;;;;;;;;;5052915;28;20290;-70
2024/01/23 05:51:49;;;;;;;5.43;2.00;;;;;;;;;;5052921;28;20205;-70
2024/01/23 05:54:15;;;;;;;7.82;1.45;;;;;;;;;;5052882;28;20204;-71
2024/01/23 05:56:41;;;;;;;7.90;1.58;;;;;;;;;;5053054;28;20220;-70
2024/01/23 05:59:08;;;;;;;6.97;1.80;;;;;;;;;;5052908;28;20258;-70
2024/01/23 06:01:34;;;;;;;8.52;1.30;;;;;;;;;;5052883;28;20284;-70
2024/01/23 06:04:01;;;;;;;6.45;1.40;;;;;;;;;;5052550;28;20251;-70
2024/01/23 06:06:29;;;;;;;4.00;1.38;;;;;;;;;;5052459;28;20320;-69
2024/01/23 06:08:55;;;;;;;8.20;1.20;;;;;;;;;;5052451;28;20248;-70
2024/01/23 06:11:21;;;;;;;6.95;1.38;;;;;;;;;;5052903;28;20258;-70
2024/01/23 06:13:47;;;;;;;7.43;1.25;;;;;;;;;;5053023;28;20197;-70
2024/01/23 06:16:13;;;;;;;5.30;1.35;;;;;;;;;;5052496;28;20221;-70
2024/01/23 06:18:40;;;;;;;5.72;1.20;;;;;;;;;;5052386;28;20197;-71
2024/01/23 06:21:06;;;;;;;2.90;1.20;;;;;;;;;;5052964;28;20500;-70
2024/01/23 06:23:34;;;;;;;2.40;0.82;;;;;;;;;;5052227;28;20744;-70
2024/01/23 06:26:00;;;;;;;4.35;1.00;;;;;;;;;;5051828;28;20266;-70
2024/01/23 06:28:27;;;;;;;2.17;0.60;;;;;;;;;;5051516;28;20594;-70
2024/01/23 06:30:54;;;;;;;1.52;0.70;;;;;;;;;;5052568;28;20213;-70
2024/01/23 06:33:20;;;;;;;3.35;1.00;;;;;;;;;;5051828;28;20200;-70
2024/01/23 06:35:46;;;;;;;2.88;0.70;;;;;;;;;;5052414;28;20282;-70
2024/01/23 06:38:12;;;;;;;2.80;1.20;;;;;;;;;;5052174;28;20270;-70
2024/01/23 06:40:40;;;;;;;1.23;0.77;;;;;;;;;;5052061;28;20202;-70
2024/01/23 06:43:06;;;;;;;5.25;0.98;;;;;;;;;;5051903;28;20623;-70
2024/01/23 06:45:32;;;;;;;2.78;0.77;;;;;;;;;;5051315;28;20612;-62
2024/01/23 06:47:59;;;;;;;3.45;0.98;;;;;;;;;;5051335;28;20596;-62
2024/01/23 06:50:28;;;;;;;2.70;0.95;;;;;;;;;;5051839;28;20296;-62
2024/01/23 06:52:55;;;;;;;1.33;0.82;;;;;;;;;;5051627;28;20205;-62
2024/01/23 06:55:21;;;;;;;1.45;0.50;;;;;;;;;;5051520;28;20259;-62
2024/01/23 06:57:49;;;;;;;1.17;0.57;;;;;;;;;;5047055;28;20253;-68
2024/01/23 07:00:15;;;;;;;1.13;0.60;;;;;;;;;;5044168;28;20216;-67
2024/01/23 07:02:42;;;;;;;1.42;0.60;;;;;;;;;;5046838;28;20216;-67
2024/01/23 07:05:08;;;;;;;2.88;0.40;;;;;;;;;;5045756;28;20243;-66
2024/01/23 07:07:35;;;;;;;1.58;0.73;;;;;;;;;;5045662;28;20212;-66
2024/01/23 07:10:01;;;;;;;3.08;2.90;;;;;;;;;;5043939;28;20642;-66
2024/01/23 07:12:27;;;;;;;0.73;0.73;;;;;;;;;;5042991;28;20208;-66
2024/01/23 07:14:55;;;;;;;2.25;0.70;;;;;;;;;;5042775;28;20215;-66
2024/01/23 07:17:21;;;;;;;1.60;0.65;;;;;;;;;;5042405;28;20233;-66
2024/01/23 07:19:47;;;;;;;1.92;0.80;;;;;;;;;;5043350;28;20258;-66
2024/01/23 07:22:14;;;;;;;0.85;0.40;;;;;;;;;;5045564;28;20213;-66
2024/01/23 07:24:40;;;;;;;0.52;0.52;;;;;;;;;;5044917;28;20217;-66
2024/01/23 07:27:06;;;;;;;1.70;0.60;;;;;;;;;;5043808;28;20658;-65
2024/01/23 07:29:32;;;;;;;1.33;0.60;;;;;;;;;;5044112;28;20278;-66
2024/01/23 07:32:00;;;;;;;1.52;0.50;;;;;;;;;;5043494;28;20677;-66
2024/01/23 07:34:26;;;;;;;0.60;0.60;;;;;;;;;;5043722;28;20689;-65
2024/01/23 07:36:52;;;;;;;0.90;0.82;;;;;;;;;;5044380;28;20228;-65
2024/01/23 07:39:19;;;;;;;3.90;0.75;;;;;;;;;;5046662;28;20207;-65
2024/01/23 07:41:45;;;;;;;4.93;0.93;;;;;;;;;;5047548;28;20224;-66
2024/01/23 07:44:11;;;;;;;2.35;0.85;;;;;;;;;;5048230;28;20208;-66
2024/01/23 07:46:37;;;;;;;1.42;1.05;;;;;;;;;;5047998;28;20283;-67
2024/01/23 07:49:05;;;;;;;2.92;0.90;;;;;;;;;;5047763;28;20220;-66
2024/01/23 07:51:44;;;;;;;1.65;0.80;;;;;;;;;;5046968;28;20577;-65
2024/01/23 07:54:10;;;;;;;1.65;1.00;;;;;;;;;;5047990;28;20208;-65
2024/01/23 07:56:37;;;;;;;2.13;0.70;;;;;;;;;;5047638;28;20225;-64
2024/01/23 07:59:03;;;;;;;4.07;0.88;;;;;;;;;;5046940;28;20263;-66
2024/01/23 08:01:29;;;;;;;0.63;0.63;;;;;;;;;;5047339;28;20212;-66
2024/01/23 08:03:57;;;;;;;2.90;0.98;;;;;;;;;;5047450;28;20213;-66
2024/01/23 08:06:24;;;;;;;1.83;0.80;;;;;;;;;;5046952;28;20244;-65
2024/01/23 08:08:51;;;;;;;4.35;0.90;;;;;;;;;;5047363;28;20213;-66
2024/01/23 08:11:17;;;;;;;3.70;1.00;;;;;;;;;;5046511;28;20212;-66
2024/01/23 08:13:43;;;;;;;4.53;0.80;;;;;;;;;;5047188;28;20278;-66
2024/01/23 08:16:09;;;;;;;3.63;1.05;;;;;;;;;;5047282;28;20474;-66
2024/01/23 08:18:36;;;;;;;1.92;0.93;;;;;;;;;;5046711;28;20213;-66
2024/01/23 08:21:02;;;;;;;1.10;1.00;;;;;;;;;;5047140;28;20217;-66
2024/01/23 08:23:30;;;;;;;1.45;0.88;;;;;;;;;;5046870;28;20232;-66
2024/01/23 08:25:56;;;;;;;1.48;0.90;;;;;;;;;;5047216;28;20229;-66
2024/01/23 08:28:23;;;;;;;0.82;0.80;;;;;;;;;;5047356;28;20290;-65
2024/01/23 08:30:49;;;;;;;2.83;0.90;;;;;;;;;;5047202;28;20197;-63
2024/01/23 08:33:18;;;;;;;2.85;0.80;;;;;;;;;;5047040;28;20266;-64
2024/01/23 08:35:44;;;;;;;2.28;0.98;;;;;;;;;;5047007;28;20231;-63
2024/01/23 08:38:10;;;;;;;1.38;0.77;;;;;;;;;;5047576;28;20209;-64
2024/01/23 08:40:39;;;;;;;4.22;0.80;;;;;;;;;;5046608;28;20213;-64
2024/01/23 08:43:05;;;;;;;1.85;1.27;;;;;;;;;;5046580;28;20303;-66
2024/01/23 08:45:31;;;;;;;2.00;1.40;;;;;;;;;;5047085;28;20830;-66
2024/01/23 08:47:58;;;;;;;2.25;0.98;;;;;;;;;;5046707;28;20239;-64
2024/01/23 08:50:24;;;;;;;5.53;1.55;;;;;;;;;;5045847;28;20225;-63
2024/01/23 08:52:50;;;;;;;3.20;1.02;;;;;;;;;;5046585;28;20209;-63
2024/01/23 08:55:16;;;;;;;4.00;1.70;;;;;;;;;;5046313;28;20267;-64
2024/01/23 08:57:44;;;;;;;4.40;1.90;;;;;;;;;;5047156;28;20201;-64
2024/01/23 09:00:12;;;;;;;4.13;1.23;;;;;;;;;;5046096;28;20735;-65
2024/01/23 09:02:38;;;;;;;3.42;1.35;;;;;;;;;;5045520;28;20205;-64
2024/01/23 09:05:05;;;;;;;5.38;1.80;;;;;;;;;;5046187;28;20224;-65
2024/01/23 09:07:31;;;;;;;4.57;1.30;;;;;;;;;;5045955;28;20266;-65
2024/01/23 09:09:57;;;;;;;5.40;1.33;;;;;;;;;;5046089;28;20267;-65
2024/01/23 09:12:25;;;;;;;4.90;1.90;;;;;;;;;;5046452;28;20213;-66
2024/01/23 09:14:52;;;;;;;4.20;1.88;;;;;;;;;;5046509;28;20763;-65
2024/01/23 09:17:19;;;;;;;4.03;1.60;;;;;;;;;;5046570;28;20275;-65
2024/01/23 09:19:45;;;;;;;5.63;1.40;;;;;;;;;;5045692;28;20209;-66
2024/01/23 09:22:13;;;;;;;5.03;1.50;;;;;;;;;;5046508;28;20205;-67
2024/01/23 09:24:40;;;;;;;5.10;1.60;;;;;;;;;;5046184;28;20204;-65
2024/01/23 09:27:07;;;;;;;2.88;1.10;;;;;;;;;;5046268;28;20225;-66
2024/01/23 09:29:33;;;;;;;3.45;1.35;;;;;;;;;;5046166;28;20281;-65
2024/01/23 09:32:00;;;;;;;4.53;1.65;;;;;;;;;;5045470;28;20235;-65
2024/01/23 09:34:27;;;;;;;4.70;1.65;;;;;;;;;;5045210;28;20208;-64
2024/01/23 09:36:53;;;;;;;3.13;1.35;;;;;;;;;;5045511;28;20278;-65
2024/01/23 09:39:20;;;;;;;6.15;1.73;;;;;;;;;;5046512;28;20288;-65
2024/01/23 09:41:47;;;;;;;3.42;1.45;;;;;;;;;;5045713;28;20254;-66
2024/01/23 09:44:14;;;;;;;6.88;1.50;;;;;;;;;;5045998;28;20209;-67
2024/01/23 09:46:41;;;;;;;2.60;1.75;;;;;;;;;;5045442;28;20274;-65
2024/01/23 09:49:09;;;;;;;4.50;1.30;;;;;;;;;;5045815;28;20286;-65
2024/01/23 09:51:35;;;;;;;2.08;1.42;;;;;;;;;;5045099;28;20629;-66
2024/01/23 09:54:02;;;;;;;5.40;1.75;;;;;;;;;;5044977;28;20209;-67
2024/01/23 09:56:28;;;;;;;4.10;1.33;;;;;;;;;;5045127;28;20649;-65
2024/01/23 09:58:55;;;;;;;5.72;1.45;;;;;;;;;;5045305;28;20201;-64
2024/01/23 10:01:22;;;;;;;5.03;1.42;;;;;;;;;;5045503;28;20225;-65
2024/01/23 10:03:49;;;;;;;3.78;1.25;;;;;;;;;;5045257;28;20332;-64
2024/01/23 10:06:17;;;;;;;5.28;1.40;;;;;;;;;;5044968;28;20231;-64
2024/01/23 10:08:43;;;;;;;8.20;2.25;;;;;;;;;;5045594;28;20275;-65
2024/01/23 10:11:10;;;;;;;4.82;1.98;;;;;;;;;;5044841;28;21000;-65
2024/01/23 10:13:37;;;;;;;2.55;1.50;;;;;;;;;;5045256;28;20765;-66
2024/01/23 10:16:03;;;;;;;3.50;1.20;;;;;;;;;;5037178;28;20529;-65
2024/01/23 10:18:29;;;;;;;2.17;1.23;;;;;;;;;;5042611;28;20205;-64
2024/01/23 10:20:56;;;;;;;4.20;1.20;;;;;;;;;;5044771;28;20224;-65
2024/01/23 10:23:23;;;;;;;2.53;1.10;;;;;;;;;;5045398;28;20617;-64
2024/01/23 10:25:50;;;;;;;1.63;0.80;;;;;;;;;;5045276;28;20713;-64
2024/01/23 10:28:16;;;;;;;3.53;1.20;;;;;;;;;;5045439;28;20755;-64
2024/01/23 10:30:45;;;;;;;4.20;0.98;;;;;;;;;;5045057;28;20224;-65
2024/01/23 10:33:11;;;;;;;2.63;1.10;;;;;;;;;;5045257;28;20205;-64
2024/01/23 10:35:37;;;;;;;4.10;1.42;;;;;;;;;;5044727;28;20229;-66
2024/01/23 10:38:05;;;;;;;4.97;1.20;;;;;;;;;;5044451;28;20707;-65
2024/01/23 10:40:33;;;;;;;3.72;1.00;;;;;;;;;;5044827;28;20205;-64
2024/01/23 10:42:59;;;;;;;8.68;3.28;;;;;;;;;;5044689;28;20697;-64
2024/01/23 10:45:26;;;;;;;7.38;1.60;;;;;;;;;;5045308;28;20221;-64
2024/01/23 10:47:53;;;;;;;4.90;1.90;;;;;;;;;;5044554;28;20205;-64
2024/01/23 10:50:20;;;;;;;4.20;1.42;;;;;;;;;;5044273;28;20300;-64
2024/01/23 10:52:47;;;;;;;7.65;1.90;;;;;;;;;;5043795;28;20753;-65
2024/01/23 10:55:14;;;;;;;7.35;2.15;;;;;;;;;;5044095;28;20209;-65
2024/01/23 10:57:46;;;;;;;5.38;1.80;;;;;;;;;;5045140;28;20283;-64
2024/01/23 11:00:14;;;;;;;6.38;1.90;;;;;;;;;;5039168;28;20225;-65
2024/01/23 11:02:43;;;;;;;3.75;1.58;;;;;;;;;;5040521;28;20239;-66
2024/01/23 11:05:10;;;;;;;7.30;1.80;;;;;;;;;;5036538;28;20213;-66
2024/01/23 11:07:41;;;;;;;7.95;1.85;;;;;;;;;;5044741;28;20275;-66
2024/01/23 11:10:10;;;;;;;6.88;1.90;;;;;;;;;;5038117;28;20228;-66
2024/01/23 11:12:41;;;;;;;6.72;2.15;;;;;;;;;;5044097;28;20213;-65
2024/01/23 11:15:11;;;;;;;5.40;1.33;;;;;;;;;;5045299;28;20205;-65
2024/01/23 11:17:39;;;;;;;7.00;1.77;;;;;;;;;;5045169;28;20314;-64
2024/01/23 11:20:07;;;;;;;3.42;1.42;;;;;;;;;;5045218;28;20312;-65
2024/01/23 11:22:33;;;;;;;6.65;1.50;;;;;;;;;;5045733;28;20215;-65
2024/01/23 11:24:59;;;;;;;3.85;1.58;;;;;;;;;;5044006;28;20209;-65
2024/01/23 11:27:26;;;;;;;7.80;1.67;;;;;;;;;;5044358;28;20205;-65
2024/01/23 11:29:53;;;;;;;4.97;1.55;;;;;;;;;;5043722;28;20224;-65
2024/01/23 11:32:23;;;;;;;7.82;1.88;;;;;;;;;;5044288;28;20673;-65
2024/01/23 11:34:58;;;;;;;7.38;1.52;;;;;;;;;;5043908;28;20213;-65
2024/01/23 11:37:34;;;;;;;6.03;1.73;;;;;;;;;;5044441;28;20213;-65
2024/01/23 11:40:00;;;;;;;11.80;2.42;;;;;;;;;;5044372;28;20919;-65
2024/01/23 11:42:35;;;;;;;11.35;2.00;;;;;;;;;;5044126;28;20267;-65
2024/01/23 11:45:16;;;;;;;10.80;1.80;;;;;;;;;;5043876;28;20247;-65
2024/01/23 11:47:43;;;;;;;10.68;2.00;;;;;;;;;;5043774;28;20682;-65
2024/01/23 11:50:10;;;;;;;7.25;1.63;;;;;;;;;;5043740;28;20221;-65
2024/01/23 11:52:37;;;;;;;10.32;2.35;;;;;;;;;;5043873;28;20209;-65
2024/01/23 11:55:04;;;;;;;7.85;2.50;;;;;;;;;;5043992;28;20209;-65
2024/01/23 11:57:33;;;;;;;9.07;2.17;;;;;;;;;;5044435;28;20209;-65
2024/01/23 11:59:59;;;;;;;7.55;1.88;;;;;;;;;;5043602;28;20210;-65
2024/01/23 12:02:26;;;;;;;9.18;1.88;;;;;;;;;;5043727;28;20216;-65
2024/01/23 12:04:54;;;;;;;5.90;1.90;;;;;;;;;;5043467;28;20287;-65
2024/01/23 12:07:20;;;;;;;9.95;1.80;;;;;;;;;;5043800;28;20228;-65
2024/01/23 12:09:46;;;;;;;6.65;1.67;;;;;;;;;;5043292;28;20225;-65
2024/01/23 12:12:13;;;;;;;11.23;2.35;;;;;;;;;;5039842;28;20219;-65
2024/01/23 12:14:39;;;;;;;8.98;1.67;;;;;;;;;;5043979;28;20736;-65
2024/01/23 12:17:05;;;;;;;5.63;1.60;;;;;;;;;;5043791;28;20682;-65
2024/01/23 12:19:43;;;;;;;11.50;2.08;;;;;;;;;;5043460;28;20240;-65
2024/01/23 12:22:10;;;;;;;9.60;1.98;;;;;;;;;;5043010;28;20380;-65
2024/01/23 12:24:37;;;;;;;7.82;1.65;;;;;;;;;;5043021;28;20422;-62
2024/01/23 12:27:04;;;;;;;8.50;1.90;;;;;;;;;;5047387;28;20225;-64
2024/01/23 12:29:30;;;;;;;7.15;1.65;;;;;;;;;;5046961;28;20220;-64
2024/01/23 12:31:57;;;;;;;6.55;1.85;;;;;;;;;;5050403;28;20213;-64
2024/01/23 12:34:23;;;;;;;7.03;1.88;;;;;;;;;;5050641;28;20661;-64
2024/01/23 12:36:50;;;;;;;4.22;1.52;;;;;;;;;;5050736;28;20758;-64
2024/01/23 12:39:18;;;;;;;5.80;1.50;;;;;;;;;;5042140;28;20247;-65
2024/01/23 12:41:44;;;;;;;6.30;1.98;;;;;;;;;;5050050;28;20701;-64
2024/01/23 12:44:11;;;;;;;9.82;2.05;;;;;;;;;;5050239;28;20205;-65
2024/01/23 12:46:37;;;;;;;10.88;1.80;;;;;;;;;;5051155;28;20228;-64
2024/01/23 12:49:04;;;;;;;7.88;2.20;;;;;;;;;;5050231;28;20212;-64
2024/01/23 12:51:30;;;;;;;10.55;1.70;;;;;;;;;;5048256;28;20225;-64
2024/01/23 12:53:57;;;;;;;8.43;1.70;;;;;;;;;;5046716;28;20620;-63
2024/01/23 12:56:24;;;;;;;11.90;2.00;;;;;;;;;;5046485;28;20217;-63
2024/01/23 12:58:51;;;;;;;8.25;1.90;;;;;;;;;;5046406;28;20290;-64
2024/01/23 13:01:17;;;;;;;3.60;1.58;;;;;;;;;;5047022;28;20681;-63
2024/01/23 13:03:44;;;;;;;6.55;2.17;;;;;;;;;;5046884;28;20538;-63
2024/01/23 13:06:10;;;;;;;7.97;1.95;;;;;;;;;;5046147;28;20267;-63
2024/01/23 13:08:36;;;;;;;5.57;1.67;;;;;;;;;;5046140;28;20267;-64
2024/01/23 13:11:03;;;;;;;6.07;1.92;;;;;;;;;;5045836;28;20593;-64
2024/01/23 13:13:30;;;;;;;13.63;2.10;;;;;;;;;;5046372;28;20209;-63
2024/01/23 13:15:57;;;;;;;9.50;1.85;;;;;;;;;;5046469;28;20737;-63
2024/01/23 13:18:23;;;;;;;7.68;1.95;;;;;;;;;;5046347;28;20220;-63
2024/01/23 13:20:49;;;;;;;9.18;1.67;;;;;;;;;;5045655;28;20201;-63
2024/01/23 13:23:17;;;;;;;8.82;1.63;;;;;;;;;;5046069;28;20620;-63
2024/01/23 13:25:44;;;;;;;14.43;2.42;;;;;;;;;;5045807;28;20225;-63
2024/01/23 13:28:10;;;;;;;10.63;1.83;;;;;;;;;;5046607;28;20205;-63
2024/01/23 13:30:38;;;;;;;8.18;1.88;;;;;;;;;;5047508;28;20267;-63
2024/01/23 13:33:04;;;;;;;8.88;2.08;;;;;;;;;;5046597;28;20219;-63
2024/01/23 13:35:30;;;;;;;10.80;2.33;;;;;;;;;;5045654;28;20730;-63
2024/01/23 13:37:57;;;;;;;7.75;1.70;;;;;;;;;;5045550;28;20774;-63
2024/01/23 13:40:23;;;;;;;6.45;1.85;;;;;;;;;;5045869;28;20271;-63
2024/01/23 13:42:50;;;;;;;7.78;2.05;;;;;;;;;;5041190;28;20205;-63
2024/01/23 13:45:16;;;;;;;7.70;1.90;;;;;;;;;;5046041;28;20294;-64
2024/01/23 13:47:44;;;;;;;15.57;2.72;;;;;;;;;;5045881;28;20201;-64
2024/01/23 13:50:10;;;;;;;9.65;2.30;;;;;;;;;;5045991;28;20270;-64
2024/01/23 13:52:37;;;;;;;7.45;1.95;;;;;;;;;;5045258;28;20635;-64
2024/01/23 13:55:05;;;;;;;7.47;1.98;;;;;;;;;;5045349;28;20590;-64
2024/01/23 13:57:32;;;;;;;12.05;1.90;;;;;;;;;;5045495;28;20220;-64
2024/01/23 13:59:59;;;;;;;10.95;2.25;;;;;;;;;;5045025;28;20310;-64
2024/01/23 14:02:25;;;;;;;7.45;1.50;;;;;;;;;;5045767;28;20212;-63
2024/01/23 14:04:52;;;;;;;10.35;2.33;;;;;;;;;;5045653;28;20213;-63
2024/01/23 14:07:19;;;;;;;9.68;1.77;;;;;;;;;;5045628;28;20240;-63
2024/01/23 14:09:45;;;;;;;8.43;1.98;;;;;;;;;;5044838;28;20205;-63
2024/01/23 14:12:12;;;;;;;7.90;2.20;;;;;;;;;;5043210;28;20328;-63
2024/01/23 14:14:38;;;;;;;10.32;2.35;;;;;;;;;;5044886;28;20205;-63
2024/01/23 14:17:05;;;;;;;6.80;1.63;;;;;;;;;;5045286;28;20594;-63
2024/01/23 14:19:31;;;;;;;8.23;1.63;;;;;;;;;;5045079;28;20209;-63
2024/01/23 14:21:58;;;;;;;5.05;1.80;;;;;;;;;;5044607;28;20255;-63
2024/01/23 14:24:25;;;;;;;7.80;2.05;;;;;;;;;;5045285;28;20209;-64
2024/01/23 14:26:51;;;;;;;8.70;2.22;;;;;;;;;;5044364;28;20229;-64
2024/01/23 14:29:17;;;;;;;6.72;1.85;;;;;;;;;;5044399;28;20209;-64
2024/01/23 14:31:43;;;;;;;6.22;1.55;;;;;;;;;;5044941;28;20208;-64
2024/01/23 14:34:10;;;;;;;9.85;2.00;;;;;;;;;;5044982;28;20259;-64
2024/01/23 14:36:36;;;;;;;5.93;1.98;;;;;;;;;;5044534;28;20550;-63
2024/01/23 14:39:04;;;;;;;10.20;2.20;;;;;;;;;;5044784;28;20258;-63